createdAt,value
2023-05-16T00:00:22.574Z,22.22
2023-05-16T00:01:22.541Z,22.39
2023-05-16T00:02:22.704Z,22.43
2023-05-16T00:03:22.519Z,21.95
2023-05-16T00:04:22.463Z,21.86
2023-05-16T00:05:22.444Z,21.89
2023-05-16T00:06:22.390Z,21.63
2023-05-16T00:07:22.422Z,21.66
2023-05-16T00:08:22.440Z,22.01
2023-05-16T00:09:22.480Z,21.73
2023-05-16T00:10:22.513Z,21.45
2023-05-16T00:11:22.551Z,21.79
2023-05-16T00:12:22.594Z,21.54
2023-05-16T00:13:22.627Z,21.03
2023-05-16T00:14:22.665Z,21.20
2023-05-16T00:15:22.696Z,21.36
2023-05-16T00:16:22.829Z,21.34
2023-05-16T00:17:22.784Z,21.14
2023-05-16T00:18:22.796Z,21.35
2023-05-16T00:19:22.976Z,21.41
2023-05-16T00:20:22.883Z,21.00
2023-05-16T00:21:23.860Z,21.11
2023-05-16T00:22:22.942Z,20.75
2023-05-16T00:23:22.981Z,20.63
2023-05-16T00:24:23.013Z,21.02
2023-05-16T00:25:23.052Z,21.06
2023-05-16T00:26:23.086Z,20.52
2023-05-16T00:27:23.120Z,20.90
2023-05-16T00:28:23.157Z,20.57
2023-05-16T00:29:23.163Z,20.63
2023-05-16T00:30:23.240Z,20.29
2023-05-16T00:31:23.347Z,20.35
2023-05-16T00:32:23.288Z,20.13
2023-05-16T00:33:23.300Z,20.40
2023-05-16T00:34:23.357Z,20.07
2023-05-16T00:35:23.364Z,20.10
2023-05-16T00:36:24.014Z,19.92
2023-05-16T00:37:23.417Z,19.72
2023-05-16T00:38:23.446Z,20.12
2023-05-16T00:39:23.490Z,19.60
2023-05-16T00:40:23.559Z,19.92
2023-05-16T00:41:23.565Z,19.73
2023-05-16T00:42:23.581Z,20.26
2023-05-16T00:43:23.620Z,19.94
2023-05-16T00:44:23.643Z,19.81
2023-05-16T00:45:23.672Z,19.43
2023-05-16T00:46:23.827Z,19.46
2023-05-16T00:47:23.751Z,19.16
2023-05-16T00:48:23.751Z,19.42
2023-05-16T00:49:23.780Z,19.54
2023-05-16T00:50:23.832Z,19.31
2023-05-16T00:51:23.846Z,19.23
2023-05-16T00:52:23.878Z,19.15
2023-05-16T00:53:23.908Z,19.65
2023-05-16T00:54:23.937Z,19.21
2023-05-16T00:55:23.971Z,19.29
2023-05-16T00:56:23.992Z,19.15
2023-05-16T00:57:24.032Z,19.31
2023-05-16T00:58:24.057Z,18.87
2023-05-16T00:59:24.087Z,18.56
2023-05-16T01:00:24.320Z,19.00
2023-05-16T01:01:24.220Z,19.04
2023-05-16T01:02:24.226Z,18.80
2023-05-16T01:03:24.338Z,18.70
2023-05-16T01:04:24.250Z,18.67
2023-05-16T01:05:24.398Z,18.80
2023-05-16T01:06:24.323Z,18.77
2023-05-16T01:07:24.338Z,18.85
2023-05-16T01:08:24.410Z,18.57
2023-05-16T01:09:24.405Z,18.50
2023-05-16T01:10:24.426Z,18.28
2023-05-16T01:11:24.454Z,18.45
2023-05-16T01:12:24.488Z,18.10
2023-05-16T01:13:24.517Z,18.49
2023-05-16T01:14:24.558Z,18.45
2023-05-16T01:15:24.649Z,18.28
2023-05-16T01:16:24.645Z,17.87
2023-05-16T01:17:24.666Z,17.90
2023-05-16T01:18:24.536Z,18.01
2023-05-16T01:19:24.591Z,18.06
2023-05-16T01:20:24.495Z,18.23
2023-05-16T01:21:24.441Z,18.16
2023-05-16T01:22:24.411Z,18.11
2023-05-16T01:23:24.390Z,18.04
2023-05-16T01:24:24.350Z,18.05
2023-05-16T01:25:24.436Z,18.21
2023-05-16T01:26:24.286Z,18.23
2023-05-16T01:27:24.247Z,18.23
2023-05-16T01:28:24.212Z,18.32
2023-05-16T01:29:24.190Z,18.26
2023-05-16T01:30:24.159Z,17.84
2023-05-16T01:31:24.232Z,18.07
2023-05-16T01:32:24.149Z,17.60
2023-05-16T01:33:24.097Z,17.88
2023-05-16T01:34:24.071Z,17.51
2023-05-16T01:35:24.223Z,17.82
2023-05-16T01:36:24.047Z,17.71
2023-05-16T01:37:24.089Z,17.67
2023-05-16T01:38:24.123Z,17.54
2023-05-16T01:39:24.155Z,17.74
2023-05-16T01:40:24.193Z,17.68
2023-05-16T01:41:24.211Z,17.32
2023-05-16T01:42:24.231Z,17.33
2023-05-16T01:43:24.270Z,17.25
2023-05-16T01:44:24.298Z,17.18
2023-05-16T01:45:24.467Z,17.31
2023-05-16T01:46:24.383Z,17.28
2023-05-16T01:47:24.409Z,17.19
2023-05-16T01:48:24.426Z,17.28
2023-05-16T01:49:24.456Z,17.08
2023-05-16T01:50:24.498Z,16.63
2023-05-16T01:51:24.542Z,16.97
2023-05-16T01:52:24.562Z,17.11
2023-05-16T01:53:24.608Z,16.77
2023-05-16T01:54:24.635Z,17.06
2023-05-16T01:55:24.842Z,16.93
2023-05-16T01:56:24.713Z,16.62
2023-05-16T01:57:24.750Z,16.59
2023-05-16T01:58:24.791Z,16.41
2023-05-16T01:59:24.841Z,16.75
2023-05-16T02:00:24.848Z,16.70
2023-05-16T02:01:24.942Z,16.56
2023-05-16T02:02:24.970Z,16.20
2023-05-16T02:03:24.951Z,16.72
2023-05-16T02:04:24.961Z,16.15
2023-05-16T02:05:25.295Z,16.14
2023-05-16T02:06:25.044Z,15.89
2023-05-16T02:07:25.088Z,16.00
2023-05-16T02:08:25.133Z,15.91
2023-05-16T02:09:25.166Z,15.98
2023-05-16T02:10:25.210Z,16.09
2023-05-16T02:11:25.170Z,16.11
2023-05-16T02:12:25.135Z,16.13
2023-05-16T02:13:25.104Z,16.15
2023-05-16T02:14:25.075Z,16.30
2023-05-16T02:15:25.171Z,16.41
2023-05-16T02:16:25.060Z,15.98
2023-05-16T02:17:25.014Z,16.13
2023-05-16T02:18:24.959Z,15.85
2023-05-16T02:19:24.927Z,16.14
2023-05-16T02:20:24.906Z,16.15
2023-05-16T02:21:24.879Z,16.10
2023-05-16T02:22:24.843Z,16.16
2023-05-16T02:23:24.827Z,16.14
2023-05-16T02:24:24.803Z,16.11
2023-05-16T02:25:25.119Z,15.84
2023-05-16T02:26:24.747Z,15.99
2023-05-16T02:27:24.728Z,15.89
2023-05-16T02:28:24.697Z,15.81
2023-05-16T02:29:24.673Z,15.71
2023-05-16T02:30:24.685Z,15.79
2023-05-16T02:31:24.772Z,15.47
2023-05-16T02:32:24.747Z,15.93
2023-05-16T02:33:24.781Z,15.49
2023-05-16T02:34:24.813Z,15.58
2023-05-16T02:35:25.088Z,15.40
2023-05-16T02:36:24.834Z,15.44
2023-05-16T02:37:24.801Z,15.46
2023-05-16T02:38:24.786Z,15.47
2023-05-16T02:39:24.747Z,15.47
2023-05-16T02:40:24.722Z,15.83
2023-05-16T02:41:24.688Z,15.43
2023-05-16T02:42:24.791Z,15.38
2023-05-16T02:43:24.669Z,15.41
2023-05-16T02:44:24.606Z,15.20
2023-05-16T02:45:24.792Z,15.41
2023-05-16T02:46:24.769Z,15.28
2023-05-16T02:47:24.733Z,14.98
2023-05-16T02:48:24.748Z,15.25
2023-05-16T02:49:24.809Z,15.18
2023-05-16T02:50:24.842Z,15.31
2023-05-16T02:51:24.856Z,14.97
2023-05-16T02:52:24.887Z,14.94
2023-05-16T02:53:24.925Z,14.87
2023-05-16T02:54:24.950Z,14.97
2023-05-16T02:55:24.999Z,14.83
2023-05-16T02:57:44.121Z,0.50
2023-05-16T02:58:44.112Z,0.50
2023-05-16T02:59:44.120Z,0.50
2023-05-16T03:00:44.118Z,0.50
2023-05-16T03:01:44.154Z,0.50
2023-05-16T03:02:44.228Z,0.50
2023-05-16T03:03:44.162Z,0.50
2023-05-16T03:04:44.109Z,0.49
2023-05-16T03:05:44.118Z,0.49
2023-05-16T03:06:44.105Z,0.50
2023-05-16T03:07:44.111Z,0.50
2023-05-16T03:08:44.105Z,0.50
2023-05-16T03:09:44.123Z,0.49
2023-05-16T03:10:44.146Z,0.50
2023-05-16T03:11:44.136Z,0.50
2023-05-16T03:12:44.142Z,0.50
2023-05-16T03:13:44.147Z,0.50
2023-05-16T03:14:44.154Z,0.50
2023-05-16T03:15:44.188Z,0.50
2023-05-16T03:16:44.225Z,0.50
2023-05-16T03:17:44.211Z,0.50
2023-05-16T03:18:44.207Z,0.50
2023-05-16T03:19:44.163Z,0.51
2023-05-16T03:20:44.179Z,0.50
2023-05-16T03:21:44.171Z,0.50
2023-05-16T03:22:44.167Z,0.50
2023-05-16T03:23:44.183Z,0.50
2023-05-16T03:24:44.237Z,0.50
2023-05-16T03:25:44.234Z,0.50
2023-05-16T03:26:44.226Z,0.50
2023-05-16T03:27:44.243Z,0.50
2023-05-16T03:28:44.263Z,0.50
2023-05-16T03:29:44.272Z,0.50
2023-05-16T03:30:44.292Z,0.50
2023-05-16T03:31:44.392Z,0.50
2023-05-16T03:32:44.346Z,0.50
2023-05-16T03:33:44.318Z,0.50
2023-05-16T03:34:44.341Z,0.50
2023-05-16T03:35:44.366Z,0.50
2023-05-16T03:36:44.394Z,0.51
2023-05-16T03:37:44.413Z,0.50
2023-05-16T03:38:44.428Z,0.50
2023-05-16T03:39:44.455Z,0.50
2023-05-16T03:40:44.467Z,0.50
2023-05-16T03:41:44.471Z,0.50
2023-05-16T03:42:44.484Z,0.50
2023-05-16T03:43:44.499Z,0.51
2023-05-16T03:44:44.511Z,0.50
2023-05-16T03:45:44.590Z,0.51
2023-05-16T03:46:44.541Z,0.50
2023-05-16T03:47:44.611Z,0.50
2023-05-16T03:48:44.595Z,0.50
2023-05-16T03:49:44.607Z,0.51
2023-05-16T03:50:44.621Z,0.50
2023-05-16T03:51:44.644Z,0.50
2023-05-16T03:52:44.652Z,0.51
2023-05-16T03:53:44.674Z,0.50
2023-05-16T03:54:44.691Z,0.50
2023-05-16T03:55:46.249Z,0.50
2023-05-16T03:56:44.721Z,0.50
2023-05-16T03:57:44.738Z,0.50
2023-05-16T03:58:44.755Z,0.50
2023-05-16T03:59:44.769Z,0.50
2023-05-16T04:00:44.797Z,0.50
2023-05-16T04:01:44.846Z,0.50
2023-05-16T04:02:45.064Z,0.50
2023-05-16T04:03:44.836Z,0.50
2023-05-16T04:04:44.862Z,0.51
2023-05-16T04:05:44.952Z,0.51
2023-05-16T04:06:44.957Z,0.51
2023-05-16T04:07:44.889Z,0.52
2023-05-16T04:08:44.912Z,0.51
2023-05-16T04:09:44.917Z,0.51
2023-05-16T04:10:44.932Z,0.52
2023-05-16T04:11:44.945Z,0.54
2023-05-16T04:12:44.958Z,0.54
2023-05-16T04:13:45.025Z,0.55
2023-05-16T04:14:44.993Z,0.57
2023-05-16T04:15:45.013Z,0.57
2023-05-16T04:16:45.031Z,0.60
2023-05-16T04:17:45.033Z,0.61
2023-05-16T04:18:45.056Z,0.61
2023-05-16T04:19:45.045Z,0.62
2023-05-16T04:20:45.062Z,0.62
2023-05-16T04:21:45.067Z,0.62
2023-05-16T04:22:45.085Z,0.62
2023-05-16T04:23:45.084Z,0.63
2023-05-16T04:24:45.104Z,0.63
2023-05-16T04:25:45.122Z,0.62
2023-05-16T04:26:45.125Z,0.62
2023-05-16T04:27:45.152Z,0.62
2023-05-16T04:28:45.159Z,0.62
2023-05-16T04:29:45.194Z,0.62
2023-05-16T04:30:45.187Z,0.65
2023-05-16T04:31:45.215Z,0.64
2023-05-16T04:32:45.226Z,0.64
2023-05-16T04:33:45.217Z,0.64
2023-05-16T04:34:45.212Z,0.62
2023-05-16T04:35:45.211Z,0.59
2023-05-16T04:36:45.220Z,0.60
2023-05-16T04:37:45.243Z,0.59
2023-05-16T04:38:45.254Z,0.59
2023-05-16T04:39:45.265Z,0.59
2023-05-16T04:40:45.285Z,0.59
2023-05-16T04:41:45.306Z,0.59
2023-05-16T04:42:45.349Z,0.59
2023-05-16T04:43:45.327Z,0.62
2023-05-16T04:44:45.346Z,0.63
2023-05-16T04:45:45.357Z,0.62
2023-05-16T04:46:45.439Z,0.64
2023-05-16T04:47:45.394Z,0.65
2023-05-16T04:48:45.394Z,0.63
2023-05-16T04:49:45.397Z,0.64
2023-05-16T04:50:45.418Z,0.63
2023-05-16T04:51:45.428Z,0.64
2023-05-16T04:52:45.442Z,0.62
2023-05-16T04:53:45.444Z,0.63
2023-05-16T04:54:45.484Z,0.62
2023-05-16T04:55:45.485Z,0.63
2023-05-16T04:56:45.513Z,0.62
2023-05-16T04:57:45.512Z,0.61
2023-05-16T04:58:45.525Z,0.62
2023-05-16T04:59:45.552Z,0.61
2023-05-16T05:00:45.558Z,0.62
2023-05-16T05:01:45.606Z,0.61
2023-05-16T05:02:45.617Z,0.60
2023-05-16T05:03:46.919Z,0.59
2023-05-16T05:04:45.859Z,0.57
2023-05-16T05:05:45.842Z,0.56
2023-05-16T05:06:45.878Z,0.60
2023-05-16T05:07:45.921Z,0.60
2023-05-16T05:08:45.943Z,0.60
2023-05-16T05:09:45.945Z,0.61
2023-05-16T05:10:45.966Z,0.62
2023-05-16T05:11:45.987Z,0.62
2023-05-16T05:12:45.987Z,0.63
2023-05-16T05:13:46.025Z,0.61
2023-05-16T05:14:46.023Z,0.60
2023-05-16T05:15:46.067Z,0.61
2023-05-16T05:16:46.058Z,0.58
2023-05-16T05:17:46.202Z,0.58
2023-05-16T05:18:46.250Z,0.55
2023-05-16T05:19:46.161Z,0.87
2023-05-16T05:20:46.127Z,1.10
2023-05-16T05:21:46.141Z,1.04
2023-05-16T05:22:46.169Z,1.09
2023-05-16T05:23:46.177Z,1.11
2023-05-16T05:24:46.192Z,1.11
2023-05-16T05:25:46.206Z,1.11
2023-05-16T05:26:46.215Z,1.15
2023-05-16T05:27:46.230Z,1.22
2023-05-16T05:28:53.852Z,1.12
2023-05-16T05:29:47.295Z,1.12
2023-05-16T05:30:46.273Z,1.17
2023-05-16T05:31:46.318Z,1.29
2023-05-16T05:32:46.333Z,1.52
2023-05-16T05:33:46.290Z,1.92
2023-05-16T05:34:46.287Z,2.33
2023-05-16T05:35:46.292Z,2.61
2023-05-16T05:36:46.299Z,2.83
2023-05-16T05:37:46.320Z,2.94
2023-05-16T05:38:46.330Z,3.19
2023-05-16T05:39:46.333Z,3.45
2023-05-16T05:40:46.389Z,3.60
2023-05-16T05:41:46.366Z,3.62
2023-05-16T05:42:47.323Z,3.39
2023-05-16T05:43:46.464Z,3.65
2023-05-16T05:44:46.395Z,3.94
2023-05-16T05:45:46.439Z,3.27
2023-05-16T05:46:46.419Z,3.92
2023-05-16T05:47:46.436Z,4.42
2023-05-16T05:48:46.424Z,4.81
2023-05-16T05:49:46.425Z,4.51
2023-05-16T05:50:46.465Z,4.59
2023-05-16T05:51:46.440Z,3.55
2023-05-16T05:52:46.447Z,3.95
2023-05-16T05:53:46.472Z,4.52
2023-05-16T05:54:46.477Z,5.06
2023-05-16T05:55:46.478Z,5.64
2023-05-16T05:56:46.496Z,6.26
2023-05-16T05:57:46.471Z,7.01
2023-05-16T05:58:46.501Z,7.65
2023-05-16T05:59:46.490Z,8.23
2023-05-16T06:00:46.515Z,8.82
2023-05-16T06:01:47.396Z,9.27
2023-05-16T06:02:46.600Z,9.73
2023-05-16T06:03:46.517Z,10.21
2023-05-16T06:04:47.319Z,10.99
2023-05-16T06:05:46.706Z,9.13
2023-05-16T06:06:46.679Z,6.86
2023-05-16T06:07:46.701Z,5.40
2023-05-16T06:08:46.718Z,4.44
2023-05-16T06:09:46.705Z,3.99
2023-05-16T06:10:46.713Z,3.40
2023-05-16T06:11:47.325Z,3.10
2023-05-16T06:12:46.736Z,2.77
2023-05-16T06:13:46.793Z,2.50
2023-05-16T06:14:46.735Z,2.19
2023-05-16T06:15:46.759Z,2.15
2023-05-16T06:16:46.817Z,2.14
2023-05-16T06:17:46.794Z,1.92
2023-05-16T06:18:46.809Z,1.94
2023-05-16T06:19:46.763Z,1.93
2023-05-16T06:20:46.782Z,1.81
2023-05-16T06:21:46.786Z,1.75
2023-05-16T06:22:46.782Z,1.59
2023-05-16T06:23:46.802Z,1.29
2023-05-16T06:24:46.802Z,1.25
2023-05-16T06:25:46.809Z,1.32
2023-05-16T06:26:46.807Z,1.24
2023-05-16T06:27:46.807Z,1.36
2023-05-16T06:28:46.811Z,1.48
2023-05-16T06:29:46.810Z,1.54
2023-05-16T06:30:46.817Z,1.86
2023-05-16T06:31:46.905Z,1.91
2023-05-16T06:32:46.866Z,1.72
2023-05-16T06:33:46.849Z,1.74
2023-05-16T06:34:46.870Z,1.65
2023-05-16T06:35:46.852Z,1.59
2023-05-16T06:36:46.888Z,1.49
2023-05-16T06:37:46.900Z,1.27
2023-05-16T06:38:46.937Z,1.30
2023-05-16T06:39:46.938Z,1.18
2023-05-16T06:40:46.949Z,1.43
2023-05-16T06:41:46.941Z,1.46
2023-05-16T06:42:46.951Z,1.23
2023-05-16T06:43:46.973Z,0.76
2023-05-16T06:44:46.975Z,0.59
2023-05-16T06:45:46.976Z,0.51
2023-05-16T06:46:47.046Z,0.42
2023-05-16T06:47:47.129Z,0.34
2023-05-16T06:48:47.050Z,0.34
2023-05-16T06:49:47.060Z,0.34
2023-05-16T06:50:47.105Z,0.42
2023-05-16T06:51:47.127Z,0.53
2023-05-16T06:52:47.171Z,0.64
2023-05-16T06:53:47.181Z,0.80
2023-05-16T06:54:47.204Z,0.99
2023-05-16T06:55:47.255Z,1.19
2023-05-16T06:56:47.267Z,1.20
2023-05-16T06:57:47.267Z,1.25
2023-05-16T06:58:47.274Z,1.40
2023-05-16T06:59:47.285Z,1.70
2023-05-16T07:00:47.312Z,2.36
2023-05-16T07:01:47.453Z,2.79
2023-05-16T07:02:47.405Z,3.18
2023-05-16T07:03:47.395Z,3.47
2023-05-16T07:04:47.321Z,3.75
2023-05-16T07:05:47.321Z,3.82
2023-05-16T07:06:47.366Z,4.10
2023-05-16T07:07:47.328Z,4.11
2023-05-16T07:08:47.323Z,4.15
2023-05-16T07:09:47.351Z,4.33
2023-05-16T07:10:47.330Z,4.83
2023-05-16T07:11:47.307Z,5.63
2023-05-16T07:12:47.310Z,5.88
2023-05-16T07:13:47.333Z,6.44
2023-05-16T07:14:47.347Z,6.78
2023-05-16T07:15:47.345Z,7.14
2023-05-16T07:16:47.510Z,7.67
2023-05-16T07:17:47.561Z,7.84
2023-05-16T07:18:47.522Z,7.87
2023-05-16T07:19:47.518Z,7.98
2023-05-16T07:20:47.487Z,8.11
2023-05-16T07:21:47.482Z,8.34
2023-05-16T07:22:47.483Z,8.38
2023-05-16T07:23:47.498Z,8.14
2023-05-16T07:24:47.499Z,7.96
2023-05-16T07:25:47.500Z,7.60
2023-05-16T07:26:47.525Z,7.76
2023-05-16T07:27:47.500Z,7.78
2023-05-16T07:28:47.504Z,7.88
2023-05-16T07:29:47.503Z,8.14
2023-05-16T07:30:47.509Z,8.06
2023-05-16T07:31:47.541Z,7.82
2023-05-16T07:32:47.541Z,7.96
2023-05-16T07:33:47.504Z,7.44
2023-05-16T07:34:47.510Z,7.23
2023-05-16T07:35:47.514Z,7.47
2023-05-16T07:36:47.486Z,7.52
2023-05-16T07:37:47.514Z,7.70
2023-05-16T07:38:47.519Z,7.65
2023-05-16T07:39:47.546Z,7.67
2023-05-16T07:40:47.612Z,5.59
2023-05-16T07:41:47.594Z,5.39
2023-05-16T07:42:47.592Z,5.35
2023-05-16T07:43:47.584Z,5.51
2023-05-16T07:44:47.585Z,5.64
2023-05-16T07:45:47.629Z,5.60
2023-05-16T07:46:47.604Z,5.65
2023-05-16T07:47:47.652Z,5.67
2023-05-16T07:48:47.600Z,5.83
2023-05-16T07:49:47.579Z,6.18
2023-05-16T07:50:47.621Z,6.43
2023-05-16T07:51:47.637Z,6.42
2023-05-16T07:52:47.580Z,6.02
2023-05-16T07:53:47.570Z,5.73
2023-05-16T07:54:47.576Z,5.76
2023-05-16T07:55:47.573Z,5.76
2023-05-16T07:56:47.574Z,5.57
2023-05-16T07:57:47.569Z,5.58
2023-05-16T07:58:47.569Z,5.60
2023-05-16T07:59:47.637Z,5.44
2023-05-16T08:00:47.568Z,5.80
2023-05-16T08:01:47.560Z,6.38
2023-05-16T08:02:47.632Z,6.00
2023-05-16T08:03:47.593Z,5.67
2023-05-16T08:04:47.549Z,5.67
2023-05-16T08:05:47.584Z,5.71
2023-05-16T08:06:47.535Z,5.67
2023-05-16T08:07:47.552Z,5.44
2023-05-16T08:08:47.548Z,5.39
2023-05-16T08:09:47.540Z,5.32
2023-05-16T08:10:47.535Z,5.32
2023-05-16T08:11:47.600Z,5.34
2023-05-16T08:12:47.526Z,5.38
2023-05-16T08:13:47.511Z,5.69
2023-05-16T08:14:47.498Z,5.49
2023-05-16T08:15:47.506Z,5.51
2023-05-16T08:16:47.489Z,5.99
2023-05-16T08:17:47.559Z,6.00
2023-05-16T08:18:47.502Z,6.04
2023-05-16T08:19:47.485Z,6.28
2023-05-16T08:20:47.481Z,6.66
2023-05-16T08:21:47.477Z,6.82
2023-05-16T08:22:47.458Z,7.42
2023-05-16T08:23:47.467Z,7.95
2023-05-16T08:24:47.437Z,8.29
2023-05-16T08:25:47.428Z,8.32
2023-05-16T08:26:47.433Z,8.46
2023-05-16T08:27:47.434Z,8.81
2023-05-16T08:28:47.395Z,9.76
2023-05-16T08:29:47.386Z,13.78
2023-05-16T08:30:48.139Z,17.26
2023-05-16T08:31:47.468Z,16.61
2023-05-16T08:32:47.351Z,14.75
2023-05-16T08:33:47.318Z,12.52
2023-05-16T08:34:47.295Z,10.22
2023-05-16T08:35:47.297Z,8.84
2023-05-16T08:36:47.298Z,7.85
2023-05-16T08:37:47.265Z,7.30
2023-05-16T08:38:47.264Z,7.13
2023-05-16T08:39:47.325Z,6.93
2023-05-16T08:40:47.325Z,6.17
2023-05-16T08:41:47.357Z,5.27
2023-05-16T08:42:47.391Z,4.28
2023-05-16T08:43:47.430Z,4.02
2023-05-16T08:44:47.488Z,3.72
2023-05-16T08:45:47.530Z,3.40
2023-05-16T08:46:47.598Z,3.09
2023-05-16T08:47:47.667Z,3.16
2023-05-16T08:48:47.663Z,3.37
2023-05-16T08:49:47.734Z,3.76
2023-05-16T08:50:47.767Z,4.26
2023-05-16T08:51:47.819Z,4.75
2023-05-16T08:52:47.884Z,5.19
2023-05-16T08:53:47.931Z,5.44
2023-05-16T08:54:55.295Z,6.10
2023-05-16T08:55:49.023Z,6.12
2023-05-16T08:56:48.038Z,6.29
2023-05-16T08:57:47.955Z,6.84
2023-05-16T08:58:47.960Z,7.65
2023-05-16T08:59:47.951Z,8.47
2023-05-16T09:00:48.028Z,8.06
2023-05-16T09:01:48.055Z,8.36
2023-05-16T09:02:47.950Z,9.26
2023-05-16T09:03:47.998Z,8.86
2023-05-16T09:04:47.946Z,9.66
2023-05-16T09:05:47.932Z,10.06
2023-05-16T09:06:47.929Z,10.68
2023-05-16T09:07:47.938Z,11.05
2023-05-16T09:08:48.011Z,11.19
2023-05-16T09:09:47.970Z,11.21
2023-05-16T09:10:47.976Z,11.32
2023-05-16T09:11:47.987Z,11.50
2023-05-16T09:12:47.941Z,11.29
2023-05-16T09:13:47.948Z,11.94
2023-05-16T09:14:47.920Z,12.09
2023-05-16T09:15:47.914Z,12.13
2023-05-16T09:16:47.971Z,12.31
2023-05-16T09:17:48.118Z,12.52
2023-05-16T09:18:47.950Z,11.72
2023-05-16T09:19:47.867Z,4.76
2023-05-16T09:20:47.908Z,2.18
2023-05-16T09:21:47.858Z,1.13
2023-05-16T09:22:47.860Z,0.70
2023-05-16T09:23:47.859Z,0.49
2023-05-16T09:24:47.854Z,0.50
2023-05-16T09:25:47.846Z,0.50
2023-05-16T09:26:47.850Z,0.51
2023-05-16T09:27:47.922Z,0.50
2023-05-16T09:28:47.940Z,0.50
2023-05-16T09:29:47.987Z,0.50
2023-05-16T09:30:48.073Z,0.50
2023-05-16T09:31:48.078Z,0.49
2023-05-16T09:32:48.113Z,0.45
2023-05-16T09:33:48.046Z,0.50
2023-05-16T09:34:48.058Z,0.50
2023-05-16T09:35:48.227Z,0.50
2023-05-16T09:36:48.088Z,0.62
2023-05-16T09:37:48.098Z,0.88
2023-05-16T09:38:48.108Z,1.23
2023-05-16T09:39:48.121Z,1.65
2023-05-16T09:40:48.129Z,2.08
2023-05-16T09:41:48.144Z,2.51
2023-05-16T09:42:48.141Z,3.26
2023-05-16T09:43:48.203Z,4.00
2023-05-16T09:44:48.277Z,4.92
2023-05-16T09:45:48.296Z,4.95
2023-05-16T09:46:48.330Z,5.21
2023-05-16T09:47:48.313Z,5.55
2023-05-16T09:48:48.325Z,3.81
2023-05-16T09:49:48.315Z,2.62
2023-05-16T09:50:48.333Z,1.74
2023-05-16T09:51:48.322Z,1.27
2023-05-16T09:52:48.318Z,1.22
2023-05-16T09:53:48.320Z,1.04
2023-05-16T09:54:48.331Z,1.04
2023-05-16T09:55:48.337Z,0.84
2023-05-16T09:56:48.353Z,0.73
2023-05-16T09:57:48.363Z,0.74
2023-05-16T09:58:48.373Z,0.80
2023-05-16T09:59:48.466Z,0.76
2023-05-16T10:00:48.375Z,0.68
2023-05-16T10:01:48.449Z,0.66
2023-05-16T10:02:48.484Z,0.64
2023-05-16T10:03:48.475Z,0.61
2023-05-16T10:04:48.421Z,0.57
2023-05-16T10:05:48.418Z,0.59
2023-05-16T10:06:48.457Z,0.61
2023-05-16T10:07:48.456Z,0.54
2023-05-16T10:08:48.488Z,0.62
2023-05-16T10:09:48.486Z,0.57
2023-05-16T10:10:48.516Z,0.58
2023-05-16T10:11:48.545Z,0.52
2023-05-16T10:12:48.537Z,0.50
2023-05-16T10:13:48.560Z,0.50
2023-05-16T10:14:48.577Z,0.50
2023-05-16T10:15:48.738Z,0.52
2023-05-16T10:16:48.772Z,0.57
2023-05-16T10:17:48.669Z,0.60
2023-05-16T10:18:48.661Z,0.58
2023-05-16T10:19:48.679Z,0.61
2023-05-16T10:20:48.687Z,0.61
2023-05-16T10:21:48.713Z,0.63
2023-05-16T10:22:48.741Z,0.68
2023-05-16T10:23:48.853Z,0.78
2023-05-16T10:24:48.779Z,0.87
2023-05-16T10:25:48.792Z,0.94
2023-05-16T10:26:48.816Z,1.00
2023-05-16T10:27:48.825Z,0.95
2023-05-16T10:28:48.856Z,0.96
2023-05-16T10:30:48.930Z,0.93
2023-05-16T10:31:49.031Z,0.94
2023-05-16T10:32:48.956Z,0.98
2023-05-16T10:33:48.944Z,1.06
2023-05-16T10:34:48.959Z,0.94
2023-05-16T10:35:48.976Z,0.98
2023-05-16T10:36:49.002Z,0.96
2023-05-16T10:37:49.004Z,1.11
2023-05-16T10:38:49.024Z,1.57
2023-05-16T10:39:49.019Z,2.80
2023-05-16T10:40:49.056Z,2.81
2023-05-16T10:41:49.057Z,1.90
2023-05-16T10:42:49.056Z,1.69
2023-05-16T10:43:49.066Z,1.60
2023-05-16T10:44:58.506Z,1.50
2023-05-16T10:45:50.158Z,1.51
2023-05-16T10:46:49.129Z,1.62
2023-05-16T10:47:49.315Z,1.88
2023-05-16T10:48:50.440Z,2.57
2023-05-16T10:49:49.135Z,4.33
2023-05-16T10:50:49.176Z,6.02
2023-05-16T10:51:49.171Z,7.42
2023-05-16T10:52:49.176Z,9.26
2023-05-16T10:53:49.202Z,11.31
2023-05-16T10:54:49.204Z,11.40
2023-05-16T10:55:49.199Z,11.96
2023-05-16T10:56:49.205Z,13.54
2023-05-16T10:57:49.221Z,15.18
2023-05-16T10:58:49.209Z,7.47
2023-05-16T10:59:49.220Z,4.06
2023-05-16T11:00:49.321Z,3.09
2023-05-16T11:01:49.300Z,2.33
2023-05-16T11:02:49.328Z,1.89
2023-05-16T11:03:49.495Z,1.70
2023-05-16T11:04:49.280Z,1.36
2023-05-16T11:05:49.299Z,1.22
2023-05-16T11:06:49.317Z,1.05
2023-05-16T11:07:49.337Z,1.00
2023-05-16T11:08:49.376Z,0.88
2023-05-16T11:09:49.367Z,0.83
2023-05-16T11:10:49.391Z,0.82
2023-05-16T11:11:49.881Z,0.79
2023-05-16T11:12:49.438Z,0.90
2023-05-16T11:13:49.432Z,0.90
2023-05-16T11:14:49.433Z,0.90
2023-05-16T11:15:49.456Z,0.93
2023-05-16T11:16:49.480Z,0.96
2023-05-16T11:17:49.498Z,1.05
2023-05-16T11:18:49.540Z,1.31
2023-05-16T11:19:49.533Z,1.59
2023-05-16T11:20:49.536Z,1.86
2023-05-16T11:21:49.584Z,2.45
2023-05-16T11:22:49.551Z,3.35
2023-05-16T11:23:49.563Z,4.90
2023-05-16T11:24:49.569Z,6.46
2023-05-16T11:25:49.588Z,8.60
2023-05-16T11:26:49.612Z,11.57
2023-05-16T11:27:49.620Z,15.11
2023-05-16T11:28:49.614Z,15.20
2023-05-16T11:29:49.626Z,15.74
2023-05-16T11:30:49.640Z,17.50
2023-05-16T11:31:49.716Z,21.58
2023-05-16T11:32:49.695Z,29.77
2023-05-16T11:33:49.669Z,33.86
2023-05-16T11:34:49.682Z,37.20
2023-05-16T11:35:49.704Z,40.82
2023-05-16T11:36:49.689Z,39.25
2023-05-16T11:37:49.712Z,41.36
2023-05-16T11:38:49.704Z,39.14
2023-05-16T11:39:49.834Z,39.84
2023-05-16T11:40:49.719Z,40.12
2023-05-16T11:41:49.733Z,40.69
2023-05-16T11:42:49.749Z,40.69
2023-05-16T11:43:49.749Z,44.89
2023-05-16T11:44:49.747Z,46.12
2023-05-16T11:45:49.747Z,49.09
2023-05-16T11:46:49.785Z,50.70
2023-05-16T11:47:50.064Z,49.30
2023-05-16T11:48:49.781Z,48.02
2023-05-16T11:49:49.767Z,46.26
2023-05-16T11:50:49.771Z,45.68
2023-05-16T11:51:49.822Z,44.40
2023-05-16T11:52:49.786Z,43.51
2023-05-16T11:53:49.828Z,43.50
2023-05-16T11:54:49.821Z,87.03
2023-05-16T11:55:52.505Z,102.98
2023-05-16T11:56:50.835Z,103.03
2023-05-16T11:57:49.836Z,103.47
2023-05-16T11:58:49.830Z,113.79
2023-05-16T11:59:49.835Z,144.86
2023-05-16T12:00:49.853Z,194.45
2023-05-16T12:01:49.839Z,175.08
2023-05-16T12:02:49.965Z,182.70
2023-05-16T12:03:49.974Z,201.33
2023-05-16T12:04:49.926Z,180.23
2023-05-16T12:05:49.857Z,180.56
2023-05-16T12:06:49.842Z,166.32
2023-05-16T12:07:49.879Z,166.91
2023-05-16T12:08:49.848Z,164.57
2023-05-16T12:09:49.850Z,165.72
2023-05-16T12:10:49.851Z,181.57
2023-05-16T12:11:49.858Z,158.72
2023-05-16T12:12:49.860Z,150.04
2023-05-16T12:13:49.863Z,150.40
2023-05-16T12:14:49.860Z,151.11
2023-05-16T12:15:49.862Z,152.67
2023-05-16T12:16:49.961Z,150.37
2023-05-16T12:17:49.900Z,142.47
2023-05-16T12:18:49.957Z,131.24
2023-05-16T12:19:49.908Z,124.41
2023-05-16T12:20:49.919Z,115.70
2023-05-16T12:21:49.910Z,110.90
2023-05-16T12:22:49.912Z,106.31
2023-05-16T12:23:50.040Z,99.91
2023-05-16T12:24:49.952Z,88.95
2023-05-16T12:25:49.926Z,79.87
2023-05-16T12:26:49.990Z,76.29
2023-05-16T12:27:49.939Z,72.93
2023-05-16T12:28:49.939Z,73.21
2023-05-16T12:29:49.948Z,69.92
2023-05-16T12:30:49.983Z,73.74
2023-05-16T12:31:50.020Z,75.95
2023-05-16T12:32:50.108Z,76.11
2023-05-16T12:33:50.050Z,76.62
2023-05-16T12:34:50.020Z,76.18
2023-05-16T12:35:50.040Z,76.28
2023-05-16T12:36:50.049Z,77.06
2023-05-16T12:37:50.027Z,78.25
2023-05-16T12:38:50.038Z,80.62
2023-05-16T12:39:50.097Z,85.23
2023-05-16T12:40:50.063Z,88.15
2023-05-16T12:41:50.073Z,91.37
2023-05-16T12:42:50.069Z,91.57
2023-05-16T12:43:50.095Z,91.77
2023-05-16T12:44:50.086Z,93.13
2023-05-16T12:45:50.165Z,96.22
2023-05-16T12:46:50.244Z,101.43
2023-05-16T12:47:50.167Z,109.62
2023-05-16T12:48:50.121Z,111.77
2023-05-16T12:49:50.143Z,113.34
2023-05-16T12:50:50.150Z,113.44
2023-05-16T12:51:50.160Z,116.93
2023-05-16T12:52:50.170Z,117.15
2023-05-16T12:54:05.553Z,117.79
2023-05-16T12:54:51.183Z,117.37
2023-05-16T12:55:50.239Z,118.67
2023-05-16T12:56:50.210Z,121.04
2023-05-16T12:57:50.262Z,126.26
2023-05-16T12:58:50.215Z,132.65
2023-05-16T12:59:50.221Z,133.19
2023-05-16T13:00:50.224Z,135.23
2023-05-16T13:01:50.313Z,135.87
2023-05-16T13:02:50.380Z,136.96
2023-05-16T13:03:50.324Z,138.25
2023-05-16T13:04:50.246Z,141.11
2023-05-16T13:05:50.245Z,139.84
2023-05-16T13:06:59.241Z,142.60
2023-05-16T13:07:51.260Z,142.80
2023-05-16T13:08:50.275Z,143.04